KALO/ALO METAR and TAF weather

Enter ICAO airport designator
Station Type Date Time Source
KALO METAR 2018/12/10 19:54 UTC NOAA

KALO 101954Z 26009KT 4SM HZ BKN012 M02/M06 A3019 RMK AO2 SLP237 T10221056


Station Type Date Time Source
KALO Decoded METAR 2018/12/10 19:54 UTC NOAA

WATERLOO MUNICIPAL AIRPORT, IA, United States (KALO) 42-33N 92-24W 264M
Dec 10, 2018 - 02:54 PM EST / 2018.12.10 1954 UTC
Wind: from the W (260 degrees) at 10 MPH (9 KT):0
Visibility: 4 mile(s):0
Sky conditions: mostly cloudy
Weather: haze
Temperature: 28.0 F (-2.2 C)
Windchill: 19 F (-7 C):1
Dew Point: 21.9 F (-5.6 C)
Relative Humidity: 77%
Pressure (altimeter): 30.19 in. Hg (1022 hPa)
ob: KALO 101954Z 26009KT 4SM HZ BKN012 M02/M06 A3019 RMK AO2 SLP237 T10221056
cycle: 20

Station Type Date Time Source
KALO TAF 2018/12/10 20:54 UTC NOAA

TAF
AMD KALO 101951Z 1020/1118 25010KT 4SM BR OVC010
FM102130 24010KT P6SM SCT005 BKN030
FM102300 23007KT P6SM SCT200
FM111100 26004KT 2SM BR SCT005 BKN040
TEMPO 1113/1115 1/2SM FZFG OVC005
FM111700 18005KT P6SM FEW005 BKN100


Example: see airport list